Time;durP1;ratioP1;P1;durP2;ratioP2;P2;SDS_P1;SDS_P2;PMS_P1;PMS_P2;Temp;Humidity;BMP_temperature;BMP_pressure;BME280_temperature;BME280_humidity;BME280_pressure;Samples;Min_cycle;Max_cycle;Signal;HPM_P1;HPM_P2
2024/01/03 00:01:17;;;;;;;;;;;;;;;;;;107265;1250;60225;-80
2024/01/03 00:03:43;;;;;;;;;;;;;;;;;;107886;1251;60968;-79
2024/01/03 00:06:10;;;;;;;;;;;;;;;;;;108099;1251;59905;-80
2024/01/03 00:08:38;;;;;;;;;;;;;;;;;;108237;1250;59387;-80
2024/01/03 00:11:04;;;;;;;;;;;;;;;;;;108536;1250;61784;-80
2024/01/03 00:13:31;;;;;;;;;;;;;;;;;;108477;1249;59611;-80
2024/01/03 00:15:58;;;;;;;;;;;;;;;;;;107190;1253;59687;-80
2024/01/03 00:18:24;;;;;;;;;;;;;;;;;;107291;1251;59071;-80
2024/01/03 00:20:50;;;;;;;;;;;;;;;;;;107151;1251;60012;-80
2024/01/03 00:23:17;;;;;;;;;;;;;;;;;;107113;1251;60076;-79
2024/01/03 00:25:43;;;;;;;;;;;;;;;;;;107054;1251;60073;-80
2024/01/03 00:28:09;;;;;;;;;;;;;;;;;;107175;1251;59120;-80
2024/01/03 00:30:36;;;;;;;;;;;;;;;;;;107069;1253;59125;-79
2024/01/03 00:33:02;;;;;;;;;;;;;;;;;;107174;1253;59025;-80
2024/01/03 00:35:29;;;;;;;;;;;;;;;;;;107138;1253;59967;-80
2024/01/03 00:37:55;;;;;;;;;;;;;;;;;;107131;1251;58956;-80
2024/01/03 00:40:21;;;;;;;;;;;;;;;;;;107145;1251;59097;-80
2024/01/03 00:42:48;;;;;;;;;;;;;;;;;;106952;1251;59116;-80
2024/01/03 00:45:14;;;;;;;;;;;;;;;;;;106951;1252;60016;-80
2024/01/03 00:47:40;;;;;;;;;;;;;;;;;;106868;1257;59911;-80
2024/01/03 00:50:07;;;;;;;;;;;;;;;;;;106953;1253;59880;-80
2024/01/03 00:52:33;;;;;;;;;;;;;;;;;;106942;1253;59957;-80
2024/01/03 00:54:59;;;;;;;;;;;;;;;;;;107079;1251;58993;-80
2024/01/03 00:57:26;;;;;;;;;;;;;;;;;;107179;1251;58701;-79
2024/01/03 00:59:52;;;;;;;;;;;;;;;;;;107133;1251;59990;-80
2024/01/03 01:02:19;;;;;;;;;;;;;;;;;;107176;1251;59915;-80
2024/01/03 01:04:45;;;;;;;;;;;;;;;;;;107094;1251;58972;-80
2024/01/03 01:07:11;;;;;;;;;;;;;;;;;;107102;1251;59109;-79
2024/01/03 01:09:38;;;;;;;;;;;;;;;;;;107065;1251;59989;-80
2024/01/03 01:12:05;;;;;;;;;;;;;;;;;;107108;1250;59034;-81
2024/01/03 01:14:31;;;;;;;;;;;;;;;;;;107058;1250;59018;-80
2024/01/03 01:16:57;;;;;;;;;;;;;;;;;;107019;1251;58436;-80
2024/01/03 01:19:24;;;;;;;;;;;;;;;;;;107151;1251;58678;-80
2024/01/03 01:21:50;;;;;;;;;;;;;;;;;;107174;1251;59000;-80
2024/01/03 01:24:17;;;;;;;;;;;;;;;;;;107117;1250;59899;-80
2024/01/03 01:26:43;;;;;;;;;;;;;;;;;;107037;1251;58998;-79
2024/01/03 01:29:09;;;;;;;;;;;;;;;;;;107102;1251;61186;-79
2024/01/03 01:31:36;;;;;;;;;;;;;;;;;;107151;1251;58948;-79
2024/01/03 01:34:02;;;;;;;;;;;;;;;;;;108877;1250;58339;-80
2024/01/03 01:36:28;;;;;;;;;;;;;;;;;;109714;1250;58499;-80
2024/01/03 01:38:55;;;;;;;;;;;;;;;;;;109730;1251;58261;-80
2024/01/03 01:41:21;;;;;;;;;;;;;;;;;;108647;1251;59428;-80
2024/01/03 01:43:48;;;;;;;;;;;;;;;;;;108400;1255;58927;-79
2024/01/03 01:46:14;;;;;;;;;;;;;;;;;;109160;1253;58980;-79
2024/01/03 01:48:40;;;;;;;;;;;;;;;;;;107359;1251;59999;-80
2024/01/03 01:51:07;;;;;;;;;;;;;;;;;;107432;1252;58912;-80
2024/01/03 01:53:33;;;;;;;;;;;;;;;;;;107431;1251;58961;-80
2024/01/03 01:55:59;;;;;;;;;;;;;;;;;;106990;1251;59477;-80
2024/01/03 01:58:26;;;;;;;;;;;;;;;;;;107055;1251;58445;-79
2024/01/03 02:00:52;;;;;;;;;;;;;;;;;;107003;1251;60530;-79
2024/01/03 02:03:18;;;;;;;;;;;;;;;;;;107051;1251;60125;-80
2024/01/03 02:05:45;;;;;;;;;;;;;;;;;;106995;1251;59139;-80
2024/01/03 02:08:11;;;;;;;;;;;;;;;;;;107899;1251;58974;-80
2024/01/03 02:10:38;;;;;;;;;;;;;;;;;;108236;1251;61224;-80
2024/01/03 02:13:04;;;;;;;;;;;;;;;;;;107004;1251;59081;-80
2024/01/03 02:15:30;;;;;;;;;;;;;;;;;;107031;1251;59073;-80
2024/01/03 02:17:57;;;;;;;;;;;;;;;;;;107004;1251;59978;-79
2024/01/03 02:20:23;;;;;;;;;;;;;;;;;;106953;1251;60167;-80
2024/01/03 02:22:49;;;;;;;;;;;;;;;;;;107088;1251;59074;-80
2024/01/03 02:25:16;;;;;;;;;;;;;;;;;;107097;1251;58552;-81
2024/01/03 02:27:42;;;;;;;;;;;;;;;;;;106986;1251;59996;-79
2024/01/03 02:30:09;;;;;;;;;;;;;;;;;;107049;1251;60036;-80
2024/01/03 02:32:35;;;;;;;;;;;;;;;;;;107026;1251;59014;-80
2024/01/03 02:35:01;;;;;;;;;;;;;;;;;;106938;1251;60139;-81
2024/01/03 02:37:28;;;;;;;;;;;;;;;;;;107003;1251;58669;-80
2024/01/03 02:39:54;;;;;;;;;;;;;;;;;;107061;1251;59072;-80
2024/01/03 02:42:20;;;;;;;;;;;;;;;;;;106942;1253;58669;-81
2024/01/03 02:44:47;;;;;;;;;;;;;;;;;;106929;1252;59533;-80
2024/01/03 02:47:13;;;;;;;;;;;;;;;;;;106859;1251;61240;-80
2024/01/03 02:49:40;;;;;;;;;;;;;;;;;;108860;1253;58415;-79
2024/01/03 02:52:06;;;;;;;;;;;;;;;;;;107138;1251;58875;-80
2024/01/03 02:54:32;;;;;;;;;;;;;;;;;;107103;1251;59010;-79
2024/01/03 02:56:59;;;;;;;;;;;;;;;;;;107087;1250;60949;-80
2024/01/03 02:59:25;;;;;;;;;;;;;;;;;;107126;1251;58976;-79
2024/01/03 03:01:52;;;;;;;;;;;;;;;;;;107147;1252;59848;-80
2024/01/03 03:04:18;;;;;;;;;;;;;;;;;;107147;1250;58931;-79
2024/01/03 03:06:45;;;;;;;;;;;;;;;;;;107141;1253;60113;-80
2024/01/03 03:09:12;;;;;;;;;;;;;;;;;;107125;1251;59576;-80
2024/01/03 03:11:38;;;;;;;;;;;;;;;;;;108251;1251;58346;-80
2024/01/03 03:14:04;;;;;;;;;;;;;;;;;;107109;1250;59505;-80
2024/01/03 03:16:31;;;;;;;;;;;;;;;;;;107115;1251;60072;-80
2024/01/03 03:18:57;;;;;;;;;;;;;;;;;;107094;1253;59048;-80
2024/01/03 03:21:23;;;;;;;;;;;;;;;;;;106957;1253;60083;-80
2024/01/03 03:23:50;;;;;;;;;;;;;;;;;;106924;1253;59019;-80
2024/01/03 03:26:16;;;;;;;;;;;;;;;;;;106871;1251;58926;-80
2024/01/03 03:28:43;;;;;;;;;;;;;;;;;;106858;1251;58947;-80
2024/01/03 03:31:09;;;;;;;;;;;;;;;;;;106934;1254;59004;-80
2024/01/03 03:33:36;;;;;;;;;;;;;;;;;;106906;1251;59557;-80
2024/01/03 03:36:02;;;;;;;;;;;;;;;;;;106847;1253;60005;-80
2024/01/03 03:38:29;;;;;;;;;;;;;;;;;;106884;1252;58834;-80
2024/01/03 03:40:55;;;;;;;;;;;;;;;;;;106873;1253;59000;-80
2024/01/03 03:43:21;;;;;;;;;;;;;;;;;;106967;1253;58838;-80
2024/01/03 03:45:48;;;;;;;;;;;;;;;;;;106780;1253;59107;-80
2024/01/03 03:48:14;;;;;;;;;;;;;;;;;;106851;1253;59053;-80
2024/01/03 03:50:40;;;;;;;;;;;;;;;;;;106828;1253;59061;-81
2024/01/03 03:53:10;;;;;;;;;;;;;;;;;;107263;1257;58940;-81
2024/01/03 03:55:36;;;;;;;;;;;;;;;;;;109719;1250;58101;-80
2024/01/03 03:58:03;;;;;;;;;;;;;;;;;;109742;1250;58173;-81
2024/01/03 04:00:29;;;;;;;;;;;;;;;;;;109707;1251;58339;-80
2024/01/03 04:02:56;;;;;;;;;;;;;;;;;;109706;1251;58142;-80
2024/01/03 04:05:22;;;;;;;;;;;;;;;;;;109707;1250;58073;-80
2024/01/03 04:07:48;;;;;;;;;;;;;;;;;;107983;1251;59009;-80
2024/01/03 04:10:15;;;;;;;;;;;;;;;;;;107185;1251;60159;-80
2024/01/03 04:12:41;;;;;;;;;;;;;;;;;;107122;1251;59085;-80
2024/01/03 04:15:08;;;;;;;;;;;;;;;;;;107181;1251;60231;-80
2024/01/03 04:17:34;;;;;;;;;;;;;;;;;;107042;1251;59062;-80
2024/01/03 04:20:00;;;;;;;;;;;;;;;;;;107129;1251;59089;-79
2024/01/03 04:22:27;;;;;;;;;;;;;;;;;;107179;1251;60071;-80
2024/01/03 04:24:53;;;;;;;;;;;;;;;;;;107057;1251;61196;-80
2024/01/03 04:27:20;;;;;;;;;;;;;;;;;;107127;1251;59079;-80
2024/01/03 04:29:46;;;;;;;;;;;;;;;;;;107044;1251;58704;-80
2024/01/03 04:32:13;;;;;;;;;;;;;;;;;;107114;1251;58906;-80
2024/01/03 04:34:40;;;;;;;;;;;;;;;;;;107118;1254;59120;-80
2024/01/03 04:37:07;;;;;;;;;;;;;;;;;;107033;1254;60168;-80
2024/01/03 04:39:33;;;;;;;;;;;;;;;;;;107126;1251;60077;-80
2024/01/03 04:41:59;;;;;;;;;;;;;;;;;;106927;1253;58972;-80
2024/01/03 04:44:26;;;;;;;;;;;;;;;;;;106803;1253;59980;-79
2024/01/03 04:46:52;;;;;;;;;;;;;;;;;;106889;1251;60000;-80
2024/01/03 04:49:19;;;;;;;;;;;;;;;;;;106923;1253;61210;-80
2024/01/03 04:51:45;;;;;;;;;;;;;;;;;;106857;1256;59099;-80
2024/01/03 04:54:11;;;;;;;;;;;;;;;;;;106913;1251;59096;-80
2024/01/03 04:56:38;;;;;;;;;;;;;;;;;;106990;1255;61186;-80
2024/01/03 04:59:04;;;;;;;;;;;;;;;;;;107070;1255;58954;-80
2024/01/03 05:01:30;;;;;;;;;;;;;;;;;;107018;1256;60113;-80
2024/01/03 05:03:57;;;;;;;;;;;;;;;;;;107083;1255;59479;-80
2024/01/03 05:06:23;;;;;;;;;;;;;;;;;;106950;1256;59482;-80
2024/01/03 05:08:50;;;;;;;;;;;;;;;;;;107041;1251;58873;-80
2024/01/03 05:11:16;;;;;;;;;;;;;;;;;;106899;1251;59988;-80
2024/01/03 05:13:43;;;;;;;;;;;;;;;;;;107156;1251;60824;-80
2024/01/03 05:16:09;;;;;;;;;;;;;;;;;;107095;1256;59111;-80
2024/01/03 05:18:36;;;;;;;;;;;;;;;;;;107037;1251;60102;-80
2024/01/03 05:21:03;;;;;;;;;;;;;;;;;;107103;1251;59037;-80
2024/01/03 05:23:29;;;;;;;;;;;;;;;;;;107043;1251;60133;-80
2024/01/03 05:25:55;;;;;;;;;;;;;;;;;;106992;1251;60039;-80
2024/01/03 05:28:22;;;;;;;;;;;;;;;;;;107061;1256;59026;-81
2024/01/03 05:30:48;;;;;;;;;;;;;;;;;;107125;1256;60088;-80
2024/01/03 05:33:14;;;;;;;;;;;;;;;;;;107046;1251;60067;-80
2024/01/03 05:35:41;;;;;;;;;;;;;;;;;;107068;1251;60089;-80
2024/01/03 05:38:07;;;;;;;;;;;;;;;;;;107050;1255;60126;-80
2024/01/03 05:40:33;;;;;;;;;;;;;;;;;;106944;1251;58956;-80
2024/01/03 05:43:00;;;;;;;;;;;;;;;;;;106889;1253;59440;-80
2024/01/03 05:45:26;;;;;;;;;;;;;;;;;;106886;1251;60324;-80
2024/01/03 05:47:53;;;;;;;;;;;;;;;;;;106921;1251;58849;-80
2024/01/03 05:50:19;;;;;;;;;;;;;;;;;;106857;1251;59998;-80
2024/01/03 05:52:46;;;;;;;;;;;;;;;;;;106972;1256;59019;-80
2024/01/03 05:55:12;;;;;;;;;;;;;;;;;;107000;1251;59046;-80
2024/01/03 05:57:38;;;;;;;;;;;;;;;;;;106957;1256;59030;-80
2024/01/03 06:00:05;;;;;;;;;;;;;;;;;;107128;1250;58999;-80
2024/01/03 06:02:32;;;;;;;;;;;;;;;;;;107289;1253;60132;-80
2024/01/03 06:04:58;;;;;;;;;;;;;;;;;;107107;1255;61177;-80
2024/01/03 06:07:24;;;;;;;;;;;;;;;;;;107016;1252;58435;-80
2024/01/03 06:09:51;;;;;;;;;;;;;;;;;;107087;1251;59120;-80
2024/01/03 06:12:17;;;;;;;;;;;;;;;;;;107017;1255;60909;-80
2024/01/03 06:14:44;;;;;;;;;;;;;;;;;;106975;1255;61349;-80
2024/01/03 06:17:10;;;;;;;;;;;;;;;;;;106938;1256;60471;-80
2024/01/03 06:19:36;;;;;;;;;;;;;;;;;;106979;1252;58878;-80
2024/01/03 06:22:03;;;;;;;;;;;;;;;;;;107125;1251;59105;-80
2024/01/03 06:24:30;;;;;;;;;;;;;;;;;;109076;1252;58261;-80
2024/01/03 06:26:56;;;;;;;;;;;;;;;;;;109583;1257;58334;-80
2024/01/03 06:29:23;;;;;;;;;;;;;;;;;;109517;1251;58085;-80
2024/01/03 06:31:49;;;;;;;;;;;;;;;;;;109518;1251;58251;-80
2024/01/03 06:34:15;;;;;;;;;;;;;;;;;;106982;1255;223705;-80
2024/01/03 06:36:42;;;;;;;;;;;;;;;;;;106861;1252;59268;-80
2024/01/03 06:39:08;;;;;;;;;;;;;;;;;;107678;1256;60233;-80
2024/01/03 06:41:34;;;;;;;;;;;;;;;;;;107034;1256;59059;-79
2024/01/03 06:44:01;;;;;;;;;;;;;;;;;;106835;1257;58447;-80
2024/01/03 06:46:27;;;;;;;;;;;;;;;;;;106899;1255;59964;-80
2024/01/03 06:48:54;;;;;;;;;;;;;;;;;;108476;1254;58974;-81
2024/01/03 06:51:20;;;;;;;;;;;;;;;;;;109575;1251;59628;-80
2024/01/03 06:53:46;;;;;;;;;;;;;;;;;;109547;1251;58145;-80
2024/01/03 06:56:13;;;;;;;;;;;;;;;;;;109509;1251;58068;-81
2024/01/03 06:58:39;;;;;;;;;;;;;;;;;;109496;1251;58205;-80
2024/01/03 07:01:06;;;;;;;;;;;;;;;;;;109606;1255;58349;-80
2024/01/03 07:03:32;;;;;;;;;;;;;;;;;;109529;1251;58098;-80
2024/01/03 07:05:58;;;;;;;;;;;;;;;;;;108554;1253;59897;-80
2024/01/03 07:08:25;;;;;;;;;;;;;;;;;;107043;1253;59082;-80
2024/01/03 07:10:51;;;;;;;;;;;;;;;;;;106947;1251;60180;-80
2024/01/03 07:13:18;;;;;;;;;;;;;;;;;;107926;1251;58790;-80
2024/01/03 07:15:44;;;;;;;;;;;;;;;;;;107661;1251;60008;-80
2024/01/03 07:18:11;;;;;;;;;;;;;;;;;;107628;1253;58459;-80
2024/01/03 07:20:37;;;;;;;;;;;;;;;;;;107448;1257;59855;-80
2024/01/03 07:23:03;;;;;;;;;;;;;;;;;;107733;1252;59037;-80
2024/01/03 07:25:30;;;;;;;;;;;;;;;;;;108031;1251;60077;-80
2024/01/03 07:27:56;;;;;;;;;;;;;;;;;;108160;1251;58944;-80
2024/01/03 07:30:25;;;;;;;;;;;;;;;;;;107968;1253;60024;-79
2024/01/03 07:32:56;;;;;;;;;;;;;;;;;;107427;1256;60040;-80
2024/01/03 07:35:23;;;;;;;;;;;;;;;;;;107437;1251;60612;-80
2024/01/03 07:37:49;;;;;;;;;;;;;;;;;;107477;1251;61323;-79
2024/01/03 07:40:15;;;;;;;;;;;;;;;;;;107353;1254;58915;-80
2024/01/03 07:42:42;;;;;;;;;;;;;;;;;;107323;1251;59072;-80
2024/01/03 07:45:08;;;;;;;;;;;;;;;;;;107418;1251;59693;-80
2024/01/03 07:47:35;;;;;;;;;;;;;;;;;;107380;1251;58996;-81
2024/01/03 07:50:01;;;;;;;;;;;;;;;;;;107475;1251;58748;-80
2024/01/03 07:52:28;;;;;;;;;;;;;;;;;;107532;1251;60221;-80
2024/01/03 07:54:54;;;;;;;;;;;;;;;;;;107613;1253;60045;-80
2024/01/03 07:57:20;;;;;;;;;;;;;;;;;;107646;1253;59111;-80
2024/01/03 07:59:47;;;;;;;;;;;;;;;;;;107423;1254;58968;-80
2024/01/03 08:02:13;;;;;;;;;;;;;;;;;;107537;1251;59027;-80
2024/01/03 08:04:42;;;;;;;;;;;;;;;;;;107526;1251;60117;-80
2024/01/03 08:07:09;;;;;;;;;;;;;;;;;;107646;1251;58623;-80
2024/01/03 08:09:37;;;;;;;;;;;;;;;;;;107745;1251;59868;-80
2024/01/03 08:12:04;;;;;;;;;;;;;;;;;;107999;1251;62047;-80
2024/01/03 08:14:31;;;;;;;;;;;;;;;;;;109492;1254;58259;-80
2024/01/03 08:16:57;;;;;;;;;;;;;;;;;;109492;1251;58586;-80
2024/01/03 08:19:24;;;;;;;;;;;;;;;;;;109487;1251;58099;-80
2024/01/03 08:21:50;;;;;;;;;;;;;;;;;;109504;1251;58282;-80
2024/01/03 08:24:16;;;;;;;;;;;;;;;;;;109521;1251;58317;-80
2024/01/03 08:26:45;;;;;;;;;;;;;;;;;;109444;1251;58354;-80
2024/01/03 08:29:12;;;;;;;;;;;;;;;;;;109484;1250;59363;-80
2024/01/03 08:31:38;;;;;;;;;;;;;;;;;;109524;1251;58211;-80
2024/01/03 08:34:05;;;;;;;;;;;;;;;;;;109509;1251;58128;-80
2024/01/03 08:36:31;;;;;;;;;;;;;;;;;;109504;1251;58499;-80
2024/01/03 08:38:57;;;;;;;;;;;;;;;;;;109511;1251;58281;-80
2024/01/03 08:41:24;;;;;;;;;;;;;;;;;;109575;1251;58325;-80
2024/01/03 08:43:50;;;;;;;;;;;;;;;;;;108877;1251;60636;-80
2024/01/03 08:46:16;;;;;;;;;;;;;;;;;;107887;1251;58965;-80
2024/01/03 08:48:43;;;;;;;;;;;;;;;;;;107808;1251;59009;-80
2024/01/03 08:51:09;;;;;;;;;;;;;;;;;;108081;1251;58916;-80
2024/01/03 08:53:36;;;;;;;;;;;;;;;;;;107419;1251;58968;-80
2024/01/03 08:56:05;;;;;;;;;;;;;;;;;;107188;1251;60123;-80
2024/01/03 08:58:31;;;;;;;;;;;;;;;;;;107155;1252;58962;-80
2024/01/03 09:00:57;;;;;;;;;;;;;;;;;;107415;1254;59020;-80
2024/01/03 09:03:24;;;;;;;;;;;;;;;;;;107217;1253;60086;-80
2024/01/03 09:05:50;;;;;;;;;;;;;;;;;;107219;1251;60107;-80
2024/01/03 09:08:17;;;;;;;;;;;;;;;;;;107059;1254;59018;-80
2024/01/03 09:10:43;;;;;;;;;;;;;;;;;;107396;1251;58539;-80
2024/01/03 09:13:10;;;;;;;;;;;;;;;;;;107328;1251;58879;-80
2024/01/03 09:15:36;;;;;;;;;;;;;;;;;;107075;1251;59983;-80
2024/01/03 09:18:02;;;;;;;;;;;;;;;;;;107302;1251;59093;-80
2024/01/03 09:20:29;;;;;;;;;;;;;;;;;;107228;1251;60129;-80
2024/01/03 09:22:55;;;;;;;;;;;;;;;;;;107335;1251;59062;-80
2024/01/03 09:25:21;;;;;;;;;;;;;;;;;;107656;1251;59902;-81
2024/01/03 09:27:48;;;;;;;;;;;;;;;;;;107779;1254;60018;-81
2024/01/03 09:30:14;;;;;;;;;;;;;;;;;;107744;1251;58603;-80
2024/01/03 09:32:41;;;;;;;;;;;;;;;;;;107837;1251;59835;-81
2024/01/03 09:35:07;;;;;;;;;;;;;;;;;;107754;1251;59041;-81
2024/01/03 09:37:34;;;;;;;;;;;;;;;;;;107271;1251;58933;-80
2024/01/03 09:40:00;;;;;;;;;;;;;;;;;;107258;1250;59073;-80
2024/01/03 09:42:27;;;;;;;;;;;;;;;;;;107745;1254;58847;-80
2024/01/03 09:44:53;;;;;;;;;;;;;;;;;;107164;1252;60147;-80
2024/01/03 09:47:20;;;;;;;;;;;;;;;;;;107813;1254;60597;-81
2024/01/03 09:49:46;;;;;;;;;;;;;;;;;;107707;1254;59046;-80
2024/01/03 09:52:13;;;;;;;;;;;;;;;;;;107791;1254;58773;-81
2024/01/03 09:54:39;;;;;;;;;;;;;;;;;;107701;1254;58999;-81
2024/01/03 09:57:07;;;;;;;;;;;;;;;;;;107670;1251;58957;-82
2024/01/03 09:59:33;;;;;;;;;;;;;;;;;;107730;1251;58931;-80
2024/01/03 10:02:00;;;;;;;;;;;;;;;;;;108058;1253;60095;-80
2024/01/03 10:04:26;;;;;;;;;;;;;;;;;;107875;1252;60067;-81
2024/01/03 10:06:53;;;;;;;;;;;;;;;;;;107601;1251;59262;-80
2024/01/03 10:09:19;;;;;;;;;;;;;;;;;;107780;1253;58929;-80
2024/01/03 10:11:46;;;;;;;;;;;;;;;;;;108052;1256;58841;-81
2024/01/03 10:14:12;;;;;;;;;;;;;;;;;;108179;1252;59022;-80
2024/01/03 10:16:39;;;;;;;;;;;;;;;;;;107982;1253;60089;-81
2024/01/03 10:19:05;;;;;;;;;;;;;;;;;;107923;1251;60632;-80
2024/01/03 10:21:31;;;;;;;;;;;;;;;;;;108240;1251;60171;-80
2024/01/03 10:23:58;;;;;;;;;;;;;;;;;;108148;1251;58358;-80
2024/01/03 10:26:25;;;;;;;;;;;;;;;;;;107919;1254;60352;-80
2024/01/03 10:28:51;;;;;;;;;;;;;;;;;;107851;1251;59121;-81
2024/01/03 10:31:17;;;;;;;;;;;;;;;;;;107633;1250;60360;-80
2024/01/03 10:33:43;;;;;;;;;;;;;;;;;;107473;1250;59209;-80
2024/01/03 10:36:10;;;;;;;;;;;;;;;;;;107518;1250;58968;-80
2024/01/03 10:38:37;;;;;;;;;;;;;;;;;;107495;1254;58407;-80
2024/01/03 10:41:03;;;;;;;;;;;;;;;;;;107691;1251;59080;-80
2024/01/03 10:43:29;;;;;;;;;;;;;;;;;;107549;1251;58971;-80
2024/01/03 10:45:57;;;;;;;;;;;;;;;;;;107758;1250;59084;-80
2024/01/03 10:48:23;;;;;;;;;;;;;;;;;;107448;1253;59075;-80
2024/01/03 10:50:49;;;;;;;;;;;;;;;;;;107723;1251;59538;-80
2024/01/03 10:53:16;;;;;;;;;;;;;;;;;;107627;1250;59854;-80
2024/01/03 10:55:42;;;;;;;;;;;;;;;;;;107558;1251;58466;-80
2024/01/03 10:58:08;;;;;;;;;;;;;;;;;;107430;1251;58989;-81
2024/01/03 11:00:35;;;;;;;;;;;;;;;;;;107657;1250;60257;-80
2024/01/03 11:03:01;;;;;;;;;;;;;;;;;;107630;1251;60115;-80
2024/01/03 11:05:28;;;;;;;;;;;;;;;;;;107814;1251;60132;-81
2024/01/03 11:07:54;;;;;;;;;;;;;;;;;;107576;1253;61328;-81
2024/01/03 11:10:20;;;;;;;;;;;;;;;;;;107522;1251;58385;-80
2024/01/03 11:12:47;;;;;;;;;;;;;;;;;;107531;1251;60006;-81
2024/01/03 11:15:13;;;;;;;;;;;;;;;;;;107655;1251;59026;-80
2024/01/03 11:17:40;;;;;;;;;;;;;;;;;;107668;1251;60049;-81
2024/01/03 11:20:06;;;;;;;;;;;;;;;;;;107476;1250;61298;-81
2024/01/03 11:22:33;;;;;;;;;;;;;;;;;;107119;1251;60057;-80
2024/01/03 11:24:59;;;;;;;;;;;;;;;;;;107095;1251;59084;-80
2024/01/03 11:27:26;;;;;;;;;;;;;;;;;;107118;1251;59019;-80
2024/01/03 11:29:53;;;;;;;;;;;;;;;;;;107437;1251;60104;-80
2024/01/03 11:32:20;;;;;;;;;;;;;;;;;;107398;1251;59008;-80
2024/01/03 11:34:46;;;;;;;;;;;;;;;;;;107447;1254;60079;-80
2024/01/03 11:37:12;;;;;;;;;;;;;;;;;;107584;1254;60014;-80
2024/01/03 11:39:42;;;;;;;;;;;;;;;;;;107341;1253;58949;-82
2024/01/03 11:42:11;;;;;;;;;;;;;;;;;;107446;1251;59906;-80
2024/01/03 11:44:38;;;;;;;;;;;;;;;;;;107084;1251;59433;-81
2024/01/03 11:47:04;;;;;;;;;;;;;;;;;;107185;1250;60057;-81
2024/01/03 11:49:31;;;;;;;;;;;;;;;;;;107003;1252;60014;-81
2024/01/03 11:51:57;;;;;;;;;;;;;;;;;;107064;1251;59586;-80
2024/01/03 11:54:24;;;;;;;;;;;;;;;;;;107126;1250;58908;-81
2024/01/03 11:56:50;;;;;;;;;;;;;;;;;;107675;1250;59088;-80
2024/01/03 11:59:17;;;;;;;;;;;;;;;;;;107481;1250;58896;-80
2024/01/03 12:01:43;;;;;;;;;;;;;;;;;;107662;1251;60070;-80
2024/01/03 12:04:09;;;;;;;;;;;;;;;;;;107495;1251;59019;-80
2024/01/03 12:06:36;;;;;;;;;;;;;;;;;;107459;1251;59925;-81
2024/01/03 12:09:03;;;;;;;;;;;;;;;;;;107465;1251;59089;-80
2024/01/03 12:11:29;;;;;;;;;;;;;;;;;;107650;1251;58995;-80
2024/01/03 12:13:55;;;;;;;;;;;;;;;;;;107561;1250;59099;-81
2024/01/03 12:16:22;;;;;;;;;;;;;;;;;;107387;1249;59022;-80
2024/01/03 12:18:48;;;;;;;;;;;;;;;;;;107704;1249;59023;-81
2024/01/03 12:21:15;;;;;;;;;;;;;;;;;;107892;1249;59993;-80
2024/01/03 12:23:41;;;;;;;;;;;;;;;;;;107477;1249;59116;-80
2024/01/03 12:26:07;;;;;;;;;;;;;;;;;;107459;1250;59957;-81
2024/01/03 12:28:34;;;;;;;;;;;;;;;;;;107458;1250;61307;-80
2024/01/03 12:31:01;;;;;;;;;;;;;;;;;;107576;1249;58399;-81
2024/01/03 12:33:27;;;;;;;;;;;;;;;;;;107504;1249;59029;-80
2024/01/03 12:36:00;;;;;;;;;;;;;;;;;;107374;1251;59024;-81
2024/01/03 12:38:26;;;;;;;;;;;;;;;;;;107552;1253;58988;-80
2024/01/03 12:40:53;;;;;;;;;;;;;;;;;;107611;1249;58870;-80
2024/01/03 12:43:20;;;;;;;;;;;;;;;;;;107523;1249;60386;-81
2024/01/03 12:45:46;;;;;;;;;;;;;;;;;;107431;1250;61218;-81
2024/01/03 12:48:12;;;;;;;;;;;;;;;;;;107489;1250;60038;-81
2024/01/03 12:50:41;;;;;;;;;;;;;;;;;;107609;1250;59085;-80
2024/01/03 12:53:08;;;;;;;;;;;;;;;;;;107620;1250;61031;-80
2024/01/03 12:55:34;;;;;;;;;;;;;;;;;;106871;1250;59019;-80
2024/01/03 12:58:01;;;;;;;;;;;;;;;;;;106886;1250;58970;-80
2024/01/03 13:00:27;;;;;;;;;;;;;;;;;;107101;1250;58908;-80
2024/01/03 13:02:53;;;;;;;;;;;;;;;;;;107108;1251;59843;-80
2024/01/03 13:05:20;;;;;;;;;;;;;;;;;;107072;1250;60037;-80
2024/01/03 13:07:46;;;;;;;;;;;;;;;;;;107534;1250;59151;-80
2024/01/03 13:10:14;;;;;;;;;;;;;;;;;;107680;1250;60230;-80
2024/01/03 13:12:40;;;;;;;;;;;;;;;;;;107592;1250;58988;-80
2024/01/03 13:15:08;;;;;;;;;;;;;;;;;;107828;1250;59116;-80
2024/01/03 13:17:34;;;;;;;;;;;;;;;;;;107514;1250;60736;-80
2024/01/03 13:20:00;;;;;;;;;;;;;;;;;;107839;1250;59459;-81
2024/01/03 13:22:27;;;;;;;;;;;;;;;;;;108068;1250;59117;-80
2024/01/03 13:24:53;;;;;;;;;;;;;;;;;;108035;1250;59153;-80
2024/01/03 13:27:20;;;;;;;;;;;;;;;;;;108279;1249;59335;-80
2024/01/03 13:29:47;;;;;;;;;;;;;;;;;;108650;1249;59479;-80
2024/01/03 13:32:13;;;;;;;;;;;;;;;;;;108570;1249;58957;-80
2024/01/03 13:34:40;;;;;;;;;;;;;;;;;;107868;1249;59042;-80
2024/01/03 13:37:06;;;;;;;;;;;;;;;;;;107879;1250;59203;-80
2024/01/03 13:39:33;;;;;;;;;;;;;;;;;;107979;1249;59973;-80
2024/01/03 13:41:59;;;;;;;;;;;;;;;;;;107278;1250;59187;-80
2024/01/03 13:44:25;;;;;;;;;;;;;;;;;;107132;1250;61300;-81
2024/01/03 13:46:53;;;;;;;;;;;;;;;;;;106932;1250;58964;-80
2024/01/03 13:49:20;;;;;;;;;;;;;;;;;;107012;1254;59067;-81
2024/01/03 13:51:48;;;;;;;;;;;;;;;;;;107106;1251;61186;-81
2024/01/03 13:54:14;;;;;;;;;;;;;;;;;;107578;1250;61083;-80
2024/01/03 13:56:41;;;;;;;;;;;;;;;;;;107089;1249;58993;-80
2024/01/03 13:59:07;;;;;;;;;;;;;;;;;;107388;1248;59785;-80
2024/01/03 14:01:34;;;;;;;;;;;;;;;;;;107031;1249;59316;-80
2024/01/03 14:04:01;;;;;;;;;;;;;;;;;;107025;1250;60069;-81
2024/01/03 14:06:27;;;;;;;;;;;;;;;;;;106944;1249;60807;-80
2024/01/03 14:08:55;;;;;;;;;;;;;;;;;;107353;1250;58964;-80
2024/01/03 14:11:21;;;;;;;;;;;;;;;;;;107289;1249;59011;-81
2024/01/03 14:13:48;;;;;;;;;;;;;;;;;;107157;1249;58935;-80
2024/01/03 14:16:14;;;;;;;;;;;;;;;;;;107150;1250;59288;-80
2024/01/03 14:18:41;;;;;;;;;;;;;;;;;;106989;1250;58929;-81
2024/01/03 14:21:07;;;;;;;;;;;;;;;;;;107214;1251;59083;-80
2024/01/03 14:23:35;;;;;;;;;;;;;;;;;;107411;1251;59007;-80
2024/01/03 14:26:02;;;;;;;;;;;;;;;;;;107160;1250;59279;-80
2024/01/03 14:28:32;;;;;;;;;;;;;;;;;;107174;1249;58950;-80
2024/01/03 14:30:58;;;;;;;;;;;;;;;;;;107345;1250;61088;-80
2024/01/03 14:33:24;;;;;;;;;;;;;;;;;;107239;1248;59836;-80
2024/01/03 14:35:51;;;;;;;;;;;;;;;;;;107102;1251;60024;-80
2024/01/03 14:38:17;;;;;;;;;;;;;;;;;;107828;1249;59020;-80
2024/01/03 14:40:48;;;;;;;;;;;;;;;;;;107213;1248;58965;-80
2024/01/03 14:43:57;;;;;;;;;;;;;;;;;;106990;1249;60175;-80
2024/01/03 14:46:07;;;;;;;;;;;;;;;;;;106982;1250;59025;-80
2024/01/03 14:48:34;;;;;;;;;;;;;;;;;;106973;1250;59811;-80
2024/01/03 14:51:00;;;;;;;;;;;;;;;;;;107139;1250;59028;-80
2024/01/03 14:53:26;;;;;;;;;;;;;;;;;;107215;1251;58961;-80
2024/01/03 14:55:53;;;;;;;;;;;;;;;;;;107221;1250;59013;-80
2024/01/03 14:58:21;;;;;;;;;;;;;;;;;;107075;1250;58915;-79
2024/01/03 15:00:47;;;;;;;;;;;;;;;;;;107356;1249;60073;-80
2024/01/03 15:03:13;;;;;;;;;;;;;;;;;;107631;1249;59081;-80
2024/01/03 15:05:41;;;;;;;;;;;;;;;;;;107091;1250;60029;-80
2024/01/03 15:08:10;;;;;;;;;;;;;;;;;;107122;1251;61115;-80
2024/01/03 15:10:37;;;;;;;;;;;;;;;;;;107120;1250;60149;-81
2024/01/03 15:13:03;;;;;;;;;;;;;;;;;;107126;1251;60828;-80
2024/01/03 15:15:31;;;;;;;;;;;;;;;;;;106987;1252;59015;-80
2024/01/03 15:17:57;;;;;;;;;;;;;;;;;;107046;1251;58989;-80
2024/01/03 15:20:42;;;;;;;;;;;;;;;;;;107209;1250;59758;-81
2024/01/03 15:23:26;;;;;;;;;;;;;;;;;;107103;1250;60285;-80
2024/01/03 15:25:53;;;;;;;;;;;;;;;;;;107040;1252;58904;-80
2024/01/03 15:28:20;;;;;;;;;;;;;;;;;;107143;1249;58887;-80
2024/01/03 15:30:48;;;;;;;;;;;;;;;;;;107118;1250;60016;-80
2024/01/03 15:33:14;;;;;;;;;;;;;;;;;;107043;1250;62051;-81
2024/01/03 15:35:41;;;;;;;;;;;;;;;;;;107055;1250;59041;-80
2024/01/03 15:38:07;;;;;;;;;;;;;;;;;;107134;1250;59092;-80
2024/01/03 15:40:33;;;;;;;;;;;;;;;;;;107274;1250;60138;-80
2024/01/03 15:43:00;;;;;;;;;;;;;;;;;;107744;1250;60649;-80
2024/01/03 15:45:26;;;;;;;;;;;;;;;;;;107981;1250;59082;-80
2024/01/03 15:47:53;;;;;;;;;;;;;;;;;;107741;1251;59090;-80
2024/01/03 15:50:19;;;;;;;;;;;;;;;;;;107857;1250;59105;-80
2024/01/03 15:52:46;;;;;;;;;;;;;;;;;;107874;1250;60101;-80
2024/01/03 15:55:12;;;;;;;;;;;;;;;;;;107730;1249;59796;-80
2024/01/03 15:57:41;;;;;;;;;;;;;;;;;;107830;1253;59869;-81
2024/01/03 16:00:07;;;;;;;;;;;;;;;;;;107311;1249;60059;-80
2024/01/03 16:02:34;;;;;;;;;;;;;;;;;;107397;1250;60151;-80
2024/01/03 16:05:00;;;;;;;;;;;;;;;;;;107074;1250;60233;-80
2024/01/03 16:07:26;;;;;;;;;;;;;;;;;;107198;1250;59022;-80
2024/01/03 16:09:54;;;;;;;;;;;;;;;;;;107104;1249;59007;-79
2024/01/03 16:12:21;;;;;;;;;;;;;;;;;;107073;1249;59595;-80
2024/01/03 16:14:48;;;;;;;;;;;;;;;;;;106796;1251;60661;-80
2024/01/03 16:17:14;;;;;;;;;;;;;;;;;;106679;1250;58868;-81
2024/01/03 16:19:41;;;;;;;;;;;;;;;;;;106728;1250;59053;-80
2024/01/03 16:22:07;;;;;;;;;;;;;;;;;;106950;1250;60004;-80
2024/01/03 16:24:33;;;;;;;;;;;;;;;;;;106742;1253;59014;-80